sensor_id;sensor_type;location;lat;lon;timestamp;temperature;humidity
45761;DHT22;31471;51.040;14.414;2023-02-26T00:00:16;-0.90;99.90
45761;DHT22;31471;51.040;14.414;2023-02-26T00:02:43;-0.90;99.90
45761;DHT22;31471;51.040;14.414;2023-02-26T00:05:10;-0.80;99.90
45761;DHT22;31471;51.040;14.414;2023-02-26T00:07:37;-0.80;99.90
45761;DHT22;31471;51.040;14.414;2023-02-26T00:10:07;-0.70;99.90
45761;DHT22;31471;51.040;14.414;2023-02-26T00:12:34;-0.70;99.90
45761;DHT22;31471;51.040;14.414;2023-02-26T00:14:59;-0.70;99.90
45761;DHT22;31471;51.040;14.414;2023-02-26T00:17:41;-0.80;99.90
45761;DHT22;31471;51.040;14.414;2023-02-26T00:20:09;-0.80;99.90
45761;DHT22;31471;51.040;14.414;2023-02-26T00:22:37;-0.80;99.90
45761;DHT22;31471;51.040;14.414;2023-02-26T00:25:03;-0.80;99.90
45761;DHT22;31471;51.040;14.414;2023-02-26T00:27:29;-0.90;99.90
45761;DHT22;31471;51.040;14.414;2023-02-26T00:29:55;-0.90;99.90
45761;DHT22;31471;51.040;14.414;2023-02-26T00:32:20;-0.80;99.90
45761;DHT22;31471;51.040;14.414;2023-02-26T00:34:47;-0.80;99.90
45761;DHT22;31471;51.040;14.414;2023-02-26T00:37:36;-0.80;99.90
45761;DHT22;31471;51.040;14.414;2023-02-26T00:40:47;-0.80;99.90
45761;DHT22;31471;51.040;14.414;2023-02-26T00:43:16;-0.80;99.90
45761;DHT22;31471;51.040;14.414;2023-02-26T00:45:46;-0.90;99.90
45761;DHT22;31471;51.040;14.414;2023-02-26T00:48:34;-1.00;99.90
45761;DHT22;31471;51.040;14.414;2023-02-26T00:51:51;-0.90;99.90
45761;DHT22;31471;51.040;14.414;2023-02-26T00:54:17;-1.00;99.90
45761;DHT22;31471;51.040;14.414;2023-02-26T00:56:43;-0.90;99.90
45761;DHT22;31471;51.040;14.414;2023-02-26T00:59:08;-0.90;99.90
45761;DHT22;31471;51.040;14.414;2023-02-26T01:01:34;-1.00;99.90
45761;DHT22;31471;51.040;14.414;2023-02-26T01:04:00;-1.00;99.90
45761;DHT22;31471;51.040;14.414;2023-02-26T01:06:28;-0.90;99.90
45761;DHT22;31471;51.040;14.414;2023-02-26T01:09:04;-1.00;99.90
45761;DHT22;31471;51.040;14.414;2023-02-26T01:11:35;-1.00;99.90
45761;DHT22;31471;51.040;14.414;2023-02-26T01:14:02;-0.90;99.90
45761;DHT22;31471;51.040;14.414;2023-02-26T01:16:31;-0.80;99.90
45761;DHT22;31471;51.040;14.414;2023-02-26T01:19:04;-0.90;99.90
45761;DHT22;31471;51.040;14.414;2023-02-26T01:21:41;-0.80;99.90
45761;DHT22;31471;51.040;14.414;2023-02-26T01:24:10;-0.80;99.90
45761;DHT22;31471;51.040;14.414;2023-02-26T01:26:37;-0.80;99.90
45761;DHT22;31471;51.040;14.414;2023-02-26T01:29:03;-0.80;99.90
45761;DHT22;31471;51.040;14.414;2023-02-26T01:34:08;-0.90;99.90
45761;DHT22;31471;51.040;14.414;2023-02-26T01:36:40;-1.00;99.90
45761;DHT22;31471;51.040;14.414;2023-02-26T01:41:46;-1.00;99.90
45761;DHT22;31471;51.040;14.414;2023-02-26T01:44:35;-1.00;99.90
45761;DHT22;31471;51.040;14.414;2023-02-26T01:47:15;-1.00;99.90
45761;DHT22;31471;51.040;14.414;2023-02-26T01:49:41;-1.00;99.90
45761;DHT22;31471;51.040;14.414;2023-02-26T01:55:12;-0.90;99.90
45761;DHT22;31471;51.040;14.414;2023-02-26T01:57:39;-0.90;99.90
45761;DHT22;31471;51.040;14.414;2023-02-26T02:00:05;-0.90;99.90
45761;DHT22;31471;51.040;14.414;2023-02-26T02:02:37;-0.90;99.90
45761;DHT22;31471;51.040;14.414;2023-02-26T02:05:27;-1.00;99.90
45761;DHT22;31471;51.040;14.414;2023-02-26T02:07:54;-0.80;99.90
45761;DHT22;31471;51.040;14.414;2023-02-26T02:10:23;-0.90;99.90
45761;DHT22;31471;51.040;14.414;2023-02-26T02:15:39;-0.80;99.90
45761;DHT22;31471;51.040;14.414;2023-02-26T02:18:37;-0.80;99.90
45761;DHT22;31471;51.040;14.414;2023-02-26T02:21:27;-0.90;99.90
45761;DHT22;31471;51.040;14.414;2023-02-26T02:26:34;-0.90;99.90
45761;DHT22;31471;51.040;14.414;2023-02-26T02:34:39;-1.00;99.90
45761;DHT22;31471;51.040;14.414;2023-02-26T02:37:17;-0.90;99.90
45761;DHT22;31471;51.040;14.414;2023-02-26T02:39:49;-0.90;99.90
45761;DHT22;31471;51.040;14.414;2023-02-26T02:44:52;-1.00;99.90
45761;DHT22;31471;51.040;14.414;2023-02-26T02:47:19;-1.00;99.90
45761;DHT22;31471;51.040;14.414;2023-02-26T02:50:06;-1.00;99.90
45761;DHT22;31471;51.040;14.414;2023-02-26T02:52:49;-1.00;99.90
45761;DHT22;31471;51.040;14.414;2023-02-26T02:55:21;-0.90;99.90
45761;DHT22;31471;51.040;14.414;2023-02-26T02:57:57;-0.80;99.90
45761;DHT22;31471;51.040;14.414;2023-02-26T03:00:26;-0.90;99.90
45761;DHT22;31471;51.040;14.414;2023-02-26T03:05:34;-0.90;99.90
45761;DHT22;31471;51.040;14.414;2023-02-26T03:08:09;-1.00;99.90
45761;DHT22;31471;51.040;14.414;2023-02-26T03:10:36;-0.90;99.90
45761;DHT22;31471;51.040;14.414;2023-02-26T03:13:02;-0.80;99.90
45761;DHT22;31471;51.040;14.414;2023-02-26T03:15:46;-0.80;99.90
45761;DHT22;31471;51.040;14.414;2023-02-26T03:18:36;-1.00;99.90
45761;DHT22;31471;51.040;14.414;2023-02-26T03:21:19;-1.00;99.90
45761;DHT22;31471;51.040;14.414;2023-02-26T03:24:53;-0.90;99.90
45761;DHT22;31471;51.040;14.414;2023-02-26T03:26:59;-0.90;99.90
45761;DHT22;31471;51.040;14.414;2023-02-26T03:29:39;-0.90;99.90
45761;DHT22;31471;51.040;14.414;2023-02-26T03:32:16;-0.80;99.90
45761;DHT22;31471;51.040;14.414;2023-02-26T03:34:50;-0.90;99.90
45761;DHT22;31471;51.040;14.414;2023-02-26T03:37:34;-0.90;99.90
45761;DHT22;31471;51.040;14.414;2023-02-26T03:40:08;-1.00;99.90
45761;DHT22;31471;51.040;14.414;2023-02-26T03:42:47;-1.00;99.90
45761;DHT22;31471;51.040;14.414;2023-02-26T03:45:24;-0.90;99.90
45761;DHT22;31471;51.040;14.414;2023-02-26T03:47:52;-1.00;99.90
45761;DHT22;31471;51.040;14.414;2023-02-26T03:53:29;-1.00;99.90
45761;DHT22;31471;51.040;14.414;2023-02-26T03:56:34;-1.00;99.90
45761;DHT22;31471;51.040;14.414;2023-02-26T03:59:22;-0.90;99.90
45761;DHT22;31471;51.040;14.414;2023-02-26T04:02:02;-0.90;99.90
45761;DHT22;31471;51.040;14.414;2023-02-26T04:04:36;-0.90;99.90
45761;DHT22;31471;51.040;14.414;2023-02-26T04:07:08;-0.90;99.90
45761;DHT22;31471;51.040;14.414;2023-02-26T04:09:34;-0.90;99.90
45761;DHT22;31471;51.040;14.414;2023-02-26T04:12:00;-1.00;99.90
45761;DHT22;31471;51.040;14.414;2023-02-26T04:14:26;-0.90;99.90
45761;DHT22;31471;51.040;14.414;2023-02-26T04:16:52;-1.00;99.90
45761;DHT22;31471;51.040;14.414;2023-02-26T04:19:18;-1.00;99.90
45761;DHT22;31471;51.040;14.414;2023-02-26T04:21:44;-1.00;99.90
45761;DHT22;31471;51.040;14.414;2023-02-26T04:24:12;-1.00;99.90
45761;DHT22;31471;51.040;14.414;2023-02-26T04:26:38;-1.00;99.90
45761;DHT22;31471;51.040;14.414;2023-02-26T04:29:03;-0.90;99.90
45761;DHT22;31471;51.040;14.414;2023-02-26T04:31:29;-0.90;99.90
45761;DHT22;31471;51.040;14.414;2023-02-26T04:33:54;-1.00;99.90
45761;DHT22;31471;51.040;14.414;2023-02-26T04:36:20;-1.00;99.90
45761;DHT22;31471;51.040;14.414;2023-02-26T04:38:45;-0.90;99.90
45761;DHT22;31471;51.040;14.414;2023-02-26T04:41:11;-1.00;99.90
45761;DHT22;31471;51.040;14.414;2023-02-26T04:43:37;-1.00;99.90
45761;DHT22;31471;51.040;14.414;2023-02-26T04:46:25;-1.10;99.90
45761;DHT22;31471;51.040;14.414;2023-02-26T04:48:51;-1.00;99.90
45761;DHT22;31471;51.040;14.414;2023-02-26T04:51:17;-0.90;99.90
45761;DHT22;31471;51.040;14.414;2023-02-26T04:53:43;-1.00;99.90
45761;DHT22;31471;51.040;14.414;2023-02-26T04:56:09;-1.10;99.90
45761;DHT22;31471;51.040;14.414;2023-02-26T04:58:34;-1.00;99.90
45761;DHT22;31471;51.040;14.414;2023-02-26T05:01:05;-1.00;99.90
45761;DHT22;31471;51.040;14.414;2023-02-26T05:03:31;-0.90;99.90
45761;DHT22;31471;51.040;14.414;2023-02-26T05:05:57;-1.00;99.90
45761;DHT22;31471;51.040;14.414;2023-02-26T05:08:22;-1.00;99.90
45761;DHT22;31471;51.040;14.414;2023-02-26T05:10:50;-0.90;99.90
45761;DHT22;31471;51.040;14.414;2023-02-26T05:13:17;-1.00;99.90
45761;DHT22;31471;51.040;14.414;2023-02-26T05:15:42;-1.10;99.90
45761;DHT22;31471;51.040;14.414;2023-02-26T05:18:10;-1.10;99.90
45761;DHT22;31471;51.040;14.414;2023-02-26T05:20:36;-1.00;99.90
45761;DHT22;31471;51.040;14.414;2023-02-26T05:23:03;-1.00;99.90
45761;DHT22;31471;51.040;14.414;2023-02-26T05:25:28;-1.00;99.90
45761;DHT22;31471;51.040;14.414;2023-02-26T05:27:54;-1.10;99.90
45761;DHT22;31471;51.040;14.414;2023-02-26T05:30:21;-1.10;99.90
45761;DHT22;31471;51.040;14.414;2023-02-26T05:32:47;-1.10;99.90
45761;DHT22;31471;51.040;14.414;2023-02-26T05:35:13;-1.10;99.90
45761;DHT22;31471;51.040;14.414;2023-02-26T05:37:39;-1.10;99.90
45761;DHT22;31471;51.040;14.414;2023-02-26T05:40:05;-1.10;99.90
45761;DHT22;31471;51.040;14.414;2023-02-26T05:42:31;-1.20;99.90
45761;DHT22;31471;51.040;14.414;2023-02-26T05:44:56;-1.10;99.90
45761;DHT22;31471;51.040;14.414;2023-02-26T05:47:22;-1.10;99.90
45761;DHT22;31471;51.040;14.414;2023-02-26T05:49:48;-1.20;99.90
45761;DHT22;31471;51.040;14.414;2023-02-26T05:52:14;-1.10;99.90
45761;DHT22;31471;51.040;14.414;2023-02-26T05:54:39;-1.00;99.90
45761;DHT22;31471;51.040;14.414;2023-02-26T05:57:05;-1.10;99.90
45761;DHT22;31471;51.040;14.414;2023-02-26T05:59:30;-1.00;99.90
45761;DHT22;31471;51.040;14.414;2023-02-26T06:01:56;-1.00;99.90
45761;DHT22;31471;51.040;14.414;2023-02-26T06:04:22;-1.10;99.90
45761;DHT22;31471;51.040;14.414;2023-02-26T06:06:48;-1.00;99.90
45761;DHT22;31471;51.040;14.414;2023-02-26T06:09:13;-1.00;99.90
45761;DHT22;31471;51.040;14.414;2023-02-26T06:11:39;-1.00;99.90
45761;DHT22;31471;51.040;14.414;2023-02-26T06:14:05;-1.00;99.90
45761;DHT22;31471;51.040;14.414;2023-02-26T06:16:30;-1.10;99.90
45761;DHT22;31471;51.040;14.414;2023-02-26T06:18:57;-1.10;99.90
45761;DHT22;31471;51.040;14.414;2023-02-26T06:21:22;-1.00;99.90
45761;DHT22;31471;51.040;14.414;2023-02-26T06:23:48;-0.90;99.90
45761;DHT22;31471;51.040;14.414;2023-02-26T06:26:13;-1.00;99.90
45761;DHT22;31471;51.040;14.414;2023-02-26T06:28:39;-1.00;99.90
45761;DHT22;31471;51.040;14.414;2023-02-26T06:31:04;-0.90;99.90
45761;DHT22;31471;51.040;14.414;2023-02-26T06:33:30;-0.90;99.90
45761;DHT22;31471;51.040;14.414;2023-02-26T06:35:55;-0.80;99.90
45761;DHT22;31471;51.040;14.414;2023-02-26T06:38:22;-0.80;99.90
45761;DHT22;31471;51.040;14.414;2023-02-26T06:40:48;-1.00;99.90
45761;DHT22;31471;51.040;14.414;2023-02-26T06:43:14;-1.00;99.90
45761;DHT22;31471;51.040;14.414;2023-02-26T06:45:42;-1.00;99.90
45761;DHT22;31471;51.040;14.414;2023-02-26T06:48:07;-1.10;99.90
45761;DHT22;31471;51.040;14.414;2023-02-26T06:50:33;-1.10;99.90
45761;DHT22;31471;51.040;14.414;2023-02-26T06:52:58;-1.10;99.90
45761;DHT22;31471;51.040;14.414;2023-02-26T06:55:24;-1.00;99.90
45761;DHT22;31471;51.040;14.414;2023-02-26T06:57:52;-1.10;99.90
45761;DHT22;31471;51.040;14.414;2023-02-26T07:00:19;-1.00;99.90
45761;DHT22;31471;51.040;14.414;2023-02-26T07:02:45;-1.00;99.90
45761;DHT22;31471;51.040;14.414;2023-02-26T07:05:10;-0.90;99.90
45761;DHT22;31471;51.040;14.414;2023-02-26T07:07:36;-0.90;99.90
45761;DHT22;31471;51.040;14.414;2023-02-26T07:10:02;-1.00;99.90
45761;DHT22;31471;51.040;14.414;2023-02-26T07:12:27;-0.90;99.90
45761;DHT22;31471;51.040;14.414;2023-02-26T07:14:53;-1.00;99.90
45761;DHT22;31471;51.040;14.414;2023-02-26T07:17:18;-1.00;99.90
45761;DHT22;31471;51.040;14.414;2023-02-26T07:19:47;-1.00;99.90
45761;DHT22;31471;51.040;14.414;2023-02-26T07:22:13;-1.00;99.90
45761;DHT22;31471;51.040;14.414;2023-02-26T07:24:39;-1.00;99.90
45761;DHT22;31471;51.040;14.414;2023-02-26T07:27:05;-1.00;99.90
45761;DHT22;31471;51.040;14.414;2023-02-26T07:29:30;-1.00;99.90
45761;DHT22;31471;51.040;14.414;2023-02-26T07:31:56;-0.90;99.90
45761;DHT22;31471;51.040;14.414;2023-02-26T07:34:22;-0.90;99.90
45761;DHT22;31471;51.040;14.414;2023-02-26T07:36:47;-0.80;99.90
45761;DHT22;31471;51.040;14.414;2023-02-26T07:39:13;-0.80;99.90
45761;DHT22;31471;51.040;14.414;2023-02-26T07:41:38;-0.80;99.90
45761;DHT22;31471;51.040;14.414;2023-02-26T07:44:12;-0.80;99.90
45761;DHT22;31471;51.040;14.414;2023-02-26T07:46:38;-0.70;99.90
45761;DHT22;31471;51.040;14.414;2023-02-26T07:49:03;-0.70;99.90
45761;DHT22;31471;51.040;14.414;2023-02-26T07:51:29;-0.70;99.90
45761;DHT22;31471;51.040;14.414;2023-02-26T07:53:55;-0.70;99.90
45761;DHT22;31471;51.040;14.414;2023-02-26T07:56:20;-0.60;99.90
45761;DHT22;31471;51.040;14.414;2023-02-26T07:58:46;-0.50;99.90
45761;DHT22;31471;51.040;14.414;2023-02-26T08:01:11;-0.60;99.90
45761;DHT22;31471;51.040;14.414;2023-02-26T08:03:37;-0.60;99.90
45761;DHT22;31471;51.040;14.414;2023-02-26T08:06:02;-0.50;99.90
45761;DHT22;31471;51.040;14.414;2023-02-26T08:08:29;-0.60;99.90
45761;DHT22;31471;51.040;14.414;2023-02-26T08:10:55;-0.60;99.90
45761;DHT22;31471;51.040;14.414;2023-02-26T08:13:23;-0.50;99.90
45761;DHT22;31471;51.040;14.414;2023-02-26T08:15:48;-0.30;99.90
45761;DHT22;31471;51.040;14.414;2023-02-26T08:18:14;-0.30;99.90
45761;DHT22;31471;51.040;14.414;2023-02-26T08:20:39;-0.40;99.90
45761;DHT22;31471;51.040;14.414;2023-02-26T08:23:04;-0.50;99.90
45761;DHT22;31471;51.040;14.414;2023-02-26T08:25:30;-0.60;99.90
45761;DHT22;31471;51.040;14.414;2023-02-26T08:27:56;-0.60;99.90
45761;DHT22;31471;51.040;14.414;2023-02-26T08:30:23;-0.60;99.90
45761;DHT22;31471;51.040;14.414;2023-02-26T08:32:49;-0.40;99.90
45761;DHT22;31471;51.040;14.414;2023-02-26T08:35:15;-0.40;99.90
45761;DHT22;31471;51.040;14.414;2023-02-26T08:37:40;-0.60;99.90
45761;DHT22;31471;51.040;14.414;2023-02-26T08:40:07;-0.60;99.90
45761;DHT22;31471;51.040;14.414;2023-02-26T08:42:34;-0.60;99.90
45761;DHT22;31471;51.040;14.414;2023-02-26T08:44:59;-0.60;99.90
45761;DHT22;31471;51.040;14.414;2023-02-26T08:47:25;-0.60;99.90
45761;DHT22;31471;51.040;14.414;2023-02-26T08:49:50;-0.50;99.90
45761;DHT22;31471;51.040;14.414;2023-02-26T08:52:16;-0.50;99.90
45761;DHT22;31471;51.040;14.414;2023-02-26T08:54:41;-0.30;99.90
45761;DHT22;31471;51.040;14.414;2023-02-26T08:57:07;-0.40;99.90
45761;DHT22;31471;51.040;14.414;2023-02-26T08:59:32;-0.40;99.90
45761;DHT22;31471;51.040;14.414;2023-02-26T09:01:58;-0.50;99.90
45761;DHT22;31471;51.040;14.414;2023-02-26T09:04:23;-0.50;99.90
45761;DHT22;31471;51.040;14.414;2023-02-26T09:06:50;-0.40;99.90
45761;DHT22;31471;51.040;14.414;2023-02-26T09:09:17;-0.30;99.90
45761;DHT22;31471;51.040;14.414;2023-02-26T09:11:43;-0.50;99.90
45761;DHT22;31471;51.040;14.414;2023-02-26T09:14:09;-0.40;99.90
45761;DHT22;31471;51.040;14.414;2023-02-26T09:16:35;-0.40;99.90
45761;DHT22;31471;51.040;14.414;2023-02-26T09:19:02;-0.40;99.90
45761;DHT22;31471;51.040;14.414;2023-02-26T09:21:28;-0.20;99.90
45761;DHT22;31471;51.040;14.414;2023-02-26T09:23:54;-0.20;99.90
45761;DHT22;31471;51.040;14.414;2023-02-26T09:26:20;-0.20;99.90
45761;DHT22;31471;51.040;14.414;2023-02-26T09:28:45;-0.30;99.90
45761;DHT22;31471;51.040;14.414;2023-02-26T09:31:11;-0.20;99.90
45761;DHT22;31471;51.040;14.414;2023-02-26T09:33:36;-0.20;99.90
45761;DHT22;31471;51.040;14.414;2023-02-26T09:36:02;-0.30;99.90
45761;DHT22;31471;51.040;14.414;2023-02-26T09:38:28;-0.10;99.90
45761;DHT22;31471;51.040;14.414;2023-02-26T09:41:08;-0.20;99.90
45761;DHT22;31471;51.040;14.414;2023-02-26T09:43:54;0.00;99.90
45761;DHT22;31471;51.040;14.414;2023-02-26T09:46:31;0.00;99.90
45761;DHT22;31471;51.040;14.414;2023-02-26T09:49:21;0.10;99.90
45761;DHT22;31471;51.040;14.414;2023-02-26T09:51:54;0.30;99.90
45761;DHT22;31471;51.040;14.414;2023-02-26T09:54:24;0.20;99.90
45761;DHT22;31471;51.040;14.414;2023-02-26T09:56:52;0.30;99.90
45761;DHT22;31471;51.040;14.414;2023-02-26T09:59:18;0.30;99.90
45761;DHT22;31471;51.040;14.414;2023-02-26T10:02:04;0.10;99.90
45761;DHT22;31471;51.040;14.414;2023-02-26T10:04:49;0.10;99.90
45761;DHT22;31471;51.040;14.414;2023-02-26T10:10:43;0.10;99.90
45761;DHT22;31471;51.040;14.414;2023-02-26T10:12:50;0.20;99.90
45761;DHT22;31471;51.040;14.414;2023-02-26T10:15:23;0.20;99.90
45761;DHT22;31471;51.040;14.414;2023-02-26T10:20:23;0.20;99.90
45761;DHT22;31471;51.040;14.414;2023-02-26T10:25:25;0.40;99.90
45761;DHT22;31471;51.040;14.414;2023-02-26T10:33:55;0.40;99.90
45761;DHT22;31471;51.040;14.414;2023-02-26T10:36:25;0.50;99.90
45761;DHT22;31471;51.040;14.414;2023-02-26T10:39:00;0.50;99.90
45761;DHT22;31471;51.040;14.414;2023-02-26T10:41:30;0.60;99.90
45761;DHT22;31471;51.040;14.414;2023-02-26T10:44:11;0.60;99.90
45761;DHT22;31471;51.040;14.414;2023-02-26T10:46:58;0.80;99.90
45761;DHT22;31471;51.040;14.414;2023-02-26T10:52:17;0.90;99.90
45761;DHT22;31471;51.040;14.414;2023-02-26T10:55:00;0.80;99.90
45761;DHT22;31471;51.040;14.414;2023-02-26T10:57:31;0.80;99.90
45761;DHT22;31471;51.040;14.414;2023-02-26T11:00:00;0.70;99.90
45761;DHT22;31471;51.040;14.414;2023-02-26T11:02:31;0.70;99.90
45761;DHT22;31471;51.040;14.414;2023-02-26T11:04:58;0.70;99.90
45761;DHT22;31471;51.040;14.414;2023-02-26T11:07:26;0.90;99.90
45761;DHT22;31471;51.040;14.414;2023-02-26T11:09:53;0.70;99.90
45761;DHT22;31471;51.040;14.414;2023-02-26T11:12:19;0.80;99.90
45761;DHT22;31471;51.040;14.414;2023-02-26T11:14:48;0.90;99.90
45761;DHT22;31471;51.040;14.414;2023-02-26T11:17:24;0.90;99.90
45761;DHT22;31471;51.040;14.414;2023-02-26T11:20:00;0.80;99.90
45761;DHT22;31471;51.040;14.414;2023-02-26T11:22:29;0.90;99.90
45761;DHT22;31471;51.040;14.414;2023-02-26T11:24:56;0.80;99.90
45761;DHT22;31471;51.040;14.414;2023-02-26T11:27:31;1.00;99.90
45761;DHT22;31471;51.040;14.414;2023-02-26T11:30:09;1.00;99.90
45761;DHT22;31471;51.040;14.414;2023-02-26T11:32:39;0.90;99.90
45761;DHT22;31471;51.040;14.414;2023-02-26T11:35:08;1.00;99.90
45761;DHT22;31471;51.040;14.414;2023-02-26T11:37:39;0.80;99.90
45761;DHT22;31471;51.040;14.414;2023-02-26T11:40:26;0.80;99.90
45761;DHT22;31471;51.040;14.414;2023-02-26T11:42:56;0.90;99.90
45761;DHT22;31471;51.040;14.414;2023-02-26T11:45:22;0.90;99.90
45761;DHT22;31471;51.040;14.414;2023-02-26T11:48:03;0.70;99.90
45761;DHT22;31471;51.040;14.414;2023-02-26T11:50:30;0.90;99.90
45761;DHT22;31471;51.040;14.414;2023-02-26T11:53:06;0.90;99.90
45761;DHT22;31471;51.040;14.414;2023-02-26T11:55:44;1.10;99.90
45761;DHT22;31471;51.040;14.414;2023-02-26T11:58:21;1.20;99.90
45761;DHT22;31471;51.040;14.414;2023-02-26T12:00:48;1.20;99.90
45761;DHT22;31471;51.040;14.414;2023-02-26T12:03:26;1.40;99.90
45761;DHT22;31471;51.040;14.414;2023-02-26T12:05:57;1.20;99.90
45761;DHT22;31471;51.040;14.414;2023-02-26T12:08:31;1.20;99.90
45761;DHT22;31471;51.040;14.414;2023-02-26T12:16:43;1.60;99.90
45761;DHT22;31471;51.040;14.414;2023-02-26T12:19:28;1.80;99.90
45761;DHT22;31471;51.040;14.414;2023-02-26T12:22:18;2.00;99.90
45761;DHT22;31471;51.040;14.414;2023-02-26T12:28:06;2.00;99.90
45761;DHT22;31471;51.040;14.414;2023-02-26T12:31:14;2.10;99.90
45761;DHT22;31471;51.040;14.414;2023-02-26T12:40:10;2.00;99.90
45761;DHT22;31471;51.040;14.414;2023-02-26T12:42:53;1.80;99.90
45761;DHT22;31471;51.040;14.414;2023-02-26T12:50:56;1.80;99.90
45761;DHT22;31471;51.040;14.414;2023-02-26T12:53:37;1.60;99.90
45761;DHT22;31471;51.040;14.414;2023-02-26T12:59:35;1.90;99.90
45761;DHT22;31471;51.040;14.414;2023-02-26T13:02:29;1.90;99.90
45761;DHT22;31471;51.040;14.414;2023-02-26T13:05:23;2.10;99.90
45761;DHT22;31471;51.040;14.414;2023-02-26T13:16:46;3.10;99.90
45761;DHT22;31471;51.040;14.414;2023-02-26T13:21:47;2.10;99.90
45761;DHT22;31471;51.040;14.414;2023-02-26T13:24:56;1.50;99.90
45761;DHT22;31471;51.040;14.414;2023-02-26T13:27:14;1.20;99.90
45761;DHT22;31471;51.040;14.414;2023-02-26T13:29:48;0.90;99.90
45761;DHT22;31471;51.040;14.414;2023-02-26T13:32:22;0.80;99.90
45761;DHT22;31471;51.040;14.414;2023-02-26T13:34:54;0.80;99.90
45761;DHT22;31471;51.040;14.414;2023-02-26T13:37:26;1.10;99.90
45761;DHT22;31471;51.040;14.414;2023-02-26T13:40:17;0.90;99.90
45761;DHT22;31471;51.040;14.414;2023-02-26T13:42:50;1.00;99.90
45761;DHT22;31471;51.040;14.414;2023-02-26T13:45:44;1.00;99.90
45761;DHT22;31471;51.040;14.414;2023-02-26T13:53:33;1.40;99.90
45761;DHT22;31471;51.040;14.414;2023-02-26T13:56:15;1.40;99.90
45761;DHT22;31471;51.040;14.414;2023-02-26T13:58:43;1.40;99.90
45761;DHT22;31471;51.040;14.414;2023-02-26T14:01:26;1.30;99.90
45761;DHT22;31471;51.040;14.414;2023-02-26T14:04:32;1.30;99.90
45761;DHT22;31471;51.040;14.414;2023-02-26T14:07:14;1.50;99.90
45761;DHT22;31471;51.040;14.414;2023-02-26T14:09:58;1.50;99.90
45761;DHT22;31471;51.040;14.414;2023-02-26T14:12:36;1.50;99.90
45761;DHT22;31471;51.040;14.414;2023-02-26T14:17:47;1.60;99.90
45761;DHT22;31471;51.040;14.414;2023-02-26T14:22:50;1.90;99.90
45761;DHT22;31471;51.040;14.414;2023-02-26T14:25:32;2.20;99.90
45761;DHT22;31471;51.040;14.414;2023-02-26T14:28:20;2.20;99.90
45761;DHT22;31471;51.040;14.414;2023-02-26T14:33:46;1.90;99.90
45761;DHT22;31471;51.040;14.414;2023-02-26T14:36:38;1.40;99.90
45761;DHT22;31471;51.040;14.414;2023-02-26T14:39:09;1.20;99.90
45761;DHT22;31471;51.040;14.414;2023-02-26T14:41:39;0.90;99.90
45761;DHT22;31471;51.040;14.414;2023-02-26T14:44:18;0.70;99.90
45761;DHT22;31471;51.040;14.414;2023-02-26T14:46:46;0.60;99.90
45761;DHT22;31471;51.040;14.414;2023-02-26T14:49:32;0.50;99.90
45761;DHT22;31471;51.040;14.414;2023-02-26T14:55:34;0.40;99.90
45761;DHT22;31471;51.040;14.414;2023-02-26T14:58:12;0.40;99.90
45761;DHT22;31471;51.040;14.414;2023-02-26T15:00:44;0.20;99.90
45761;DHT22;31471;51.040;14.414;2023-02-26T15:06:41;0.30;99.90
45761;DHT22;31471;51.040;14.414;2023-02-26T15:09:22;0.40;99.90
45761;DHT22;31471;51.040;14.414;2023-02-26T15:12:09;0.30;99.90
45761;DHT22;31471;51.040;14.414;2023-02-26T15:15:09;0.50;99.90
45761;DHT22;31471;51.040;14.414;2023-02-26T15:20:32;0.40;99.90
45761;DHT22;31471;51.040;14.414;2023-02-26T15:23:25;0.30;99.90
45761;DHT22;31471;51.040;14.414;2023-02-26T15:25:55;0.30;99.90
45761;DHT22;31471;51.040;14.414;2023-02-26T15:28:32;0.10;99.90
45761;DHT22;31471;51.040;14.414;2023-02-26T15:31:04;0.30;99.90
45761;DHT22;31471;51.040;14.414;2023-02-26T15:33:30;0.30;99.90
45761;DHT22;31471;51.040;14.414;2023-02-26T15:35:58;0.50;99.90
45761;DHT22;31471;51.040;14.414;2023-02-26T15:38:24;0.60;99.90
45761;DHT22;31471;51.040;14.414;2023-02-26T15:40:52;0.50;99.90
45761;DHT22;31471;51.040;14.414;2023-02-26T15:43:26;0.40;99.90
45761;DHT22;31471;51.040;14.414;2023-02-26T15:45:56;0.30;99.90
45761;DHT22;31471;51.040;14.414;2023-02-26T15:48:29;0.30;99.90
45761;DHT22;31471;51.040;14.414;2023-02-26T15:50:59;0.30;99.90
45761;DHT22;31471;51.040;14.414;2023-02-26T15:53:47;0.10;99.90
45761;DHT22;31471;51.040;14.414;2023-02-26T15:56:20;0.30;99.90
45761;DHT22;31471;51.040;14.414;2023-02-26T15:58:58;0.20;99.90
45761;DHT22;31471;51.040;14.414;2023-02-26T16:01:27;0.20;99.90
45761;DHT22;31471;51.040;14.414;2023-02-26T16:03:57;0.20;99.90
45761;DHT22;31471;51.040;14.414;2023-02-26T16:06:36;0.30;99.90
45761;DHT22;31471;51.040;14.414;2023-02-26T16:09:04;0.20;99.90
45761;DHT22;31471;51.040;14.414;2023-02-26T16:11:36;0.20;99.90
45761;DHT22;31471;51.040;14.414;2023-02-26T16:14:03;0.10;99.90
45761;DHT22;31471;51.040;14.414;2023-02-26T16:16:42;0.10;99.90
45761;DHT22;31471;51.040;14.414;2023-02-26T16:19:17;0.00;99.90
45761;DHT22;31471;51.040;14.414;2023-02-26T16:21:45;0.00;99.90
45761;DHT22;31471;51.040;14.414;2023-02-26T16:24:15;-0.10;99.90
45761;DHT22;31471;51.040;14.414;2023-02-26T16:26:45;-0.20;99.90
45761;DHT22;31471;51.040;14.414;2023-02-26T16:29:15;-0.30;99.90
45761;DHT22;31471;51.040;14.414;2023-02-26T16:31:43;-0.40;99.90
45761;DHT22;31471;51.040;14.414;2023-02-26T16:36:54;-0.20;99.90
45761;DHT22;31471;51.040;14.414;2023-02-26T16:39:25;-0.20;99.90
45761;DHT22;31471;51.040;14.414;2023-02-26T16:42:08;-0.10;99.90
45761;DHT22;31471;51.040;14.414;2023-02-26T16:44:50;-0.10;99.90
45761;DHT22;31471;51.040;14.414;2023-02-26T16:47:17;-0.20;99.90
45761;DHT22;31471;51.040;14.414;2023-02-26T16:49:43;-0.10;99.90
45761;DHT22;31471;51.040;14.414;2023-02-26T16:52:17;0.00;99.90
45761;DHT22;31471;51.040;14.414;2023-02-26T16:54:55;0.00;99.90
45761;DHT22;31471;51.040;14.414;2023-02-26T16:57:38;0.00;99.90
45761;DHT22;31471;51.040;14.414;2023-02-26T17:00:10;0.00;99.90
45761;DHT22;31471;51.040;14.414;2023-02-26T17:02:44;0.10;99.90
45761;DHT22;31471;51.040;14.414;2023-02-26T17:05:19;0.10;99.90
45761;DHT22;31471;51.040;14.414;2023-02-26T17:07:51;0.20;99.90
45761;DHT22;31471;51.040;14.414;2023-02-26T17:10:22;0.10;99.90
45761;DHT22;31471;51.040;14.414;2023-02-26T17:12:51;0.10;99.90
45761;DHT22;31471;51.040;14.414;2023-02-26T17:15:36;0.20;99.90
45761;DHT22;31471;51.040;14.414;2023-02-26T17:18:02;0.10;99.90
45761;DHT22;31471;51.040;14.414;2023-02-26T17:20:30;0.10;99.90
45761;DHT22;31471;51.040;14.414;2023-02-26T17:22:57;0.10;99.90
45761;DHT22;31471;51.040;14.414;2023-02-26T17:25:26;0.00;99.90
45761;DHT22;31471;51.040;14.414;2023-02-26T17:27:53;0.10;99.90
45761;DHT22;31471;51.040;14.414;2023-02-26T17:30:22;0.00;99.90
45761;DHT22;31471;51.040;14.414;2023-02-26T17:32:48;-0.10;99.90
45761;DHT22;31471;51.040;14.414;2023-02-26T17:35:15;0.00;99.90